Time;durP1;ratioP1;P1;durP2;ratioP2;P2;SDS_P1;SDS_P2;PMS_P1;PMS_P2;Temp;Humidity;BMP_temperature;BMP_pressure;BME280_temperature;BME280_humidity;BME280_pressure;Samples;Min_cycle;Max_cycle;Signal;HPM_P1;HPM_P2
2022/02/25 00:02:25;;;;;;;6.55;1.75;;;20.90;69.20;;;;;;4967866;28;96283;-47
2022/02/25 00:05:02;;;;;;;10.48;2.45;;;21.10;69.40;;;;;;4961768;28;95944;-47
2022/02/25 00:07:35;;;;;;;5.95;2.25;;;21.40;68.50;;;;;;4967702;28;96437;-47
2022/02/25 00:10:10;;;;;;;6.15;2.28;;;21.50;68.50;;;;;;4968482;28;95820;-47
2022/02/25 00:12:46;;;;;;;8.30;1.83;;;21.50;68.10;;;;;;4972246;28;95926;-47
2022/02/25 00:15:18;;;;;;;5.70;1.80;;;21.70;67.80;;;;;;4966650;28;96715;-47
2022/02/25 00:17:50;;;;;;;;;;;21.70;67.60;;;;;;4969870;28;103276;-46
2022/02/25 00:20:22;;;;;;;8.60;2.75;;;21.70;66.70;;;;;;4977165;28;96235;-47
2022/02/25 00:22:53;;;;;;;6.15;2.28;;;21.80;67.30;;;;;;4972219;28;96338;-46
2022/02/25 00:25:25;;;;;;;;;;;21.80;67.40;;;;;;4973088;28;96055;-47
2022/02/25 00:27:56;;;;;;;7.95;2.10;;;22.00;66.70;;;;;;4972269;28;97396;-47
2022/02/25 00:30:26;;;;;;;8.65;2.45;;;22.10;66.90;;;;;;4973527;28;96080;-47
2022/02/25 00:32:56;;;;;;;8.07;2.13;;;22.30;66.90;;;;;;4972281;28;95930;-47
2022/02/25 00:35:28;;;;;;;8.88;2.55;;;22.20;66.20;;;;;;4963407;28;95848;-46
2022/02/25 00:37:59;;;;;;;5.00;1.75;;;22.40;65.60;;;;;;4974555;28;97196;-47
2022/02/25 00:40:29;;;;;;;6.80;2.00;;;22.50;65.70;;;;;;4971001;28;95843;-46
2022/02/25 00:43:00;;;;;;;8.13;2.57;;;22.60;65.40;;;;;;4969074;28;95908;-47
2022/02/25 00:45:32;;;;;;;6.65;2.08;;;22.50;65.00;;;;;;4974443;28;98645;-46
2022/02/25 00:48:04;;;;;;;7.05;2.00;;;22.60;65.10;;;;;;4974303;28;96276;-47
2022/02/25 00:50:36;;;;;;;7.65;2.20;;;22.50;64.70;;;;;;4974096;28;96559;-46
2022/02/25 00:53:06;;;;;;;9.30;2.50;;;22.60;65.50;;;;;;4972495;28;95931;-47
2022/02/25 00:55:38;;;;;;;5.85;1.65;;;22.70;65.60;;;;;;4974762;28;95819;-47
2022/02/25 00:58:08;;;;;;;6.93;2.63;;;22.90;64.70;;;;;;4981367;28;96104;-47
2022/02/25 01:00:42;;;;;;;5.82;1.60;;;23.00;64.60;;;;;;4965744;28;96161;-46
2022/02/25 01:03:14;;;;;;;8.55;2.70;;;23.00;63.50;;;;;;4977255;28;96886;-46
2022/02/25 01:05:47;;;;;;;4.28;1.88;;;23.00;64.00;;;;;;4973937;28;95804;-46
2022/02/25 01:08:19;;;;;;;6.93;2.80;;;23.20;64.00;;;;;;4969808;28;96767;-47
2022/02/25 01:10:49;;;;;;;6.75;2.20;;;23.30;63.60;;;;;;4971625;28;95563;-47
2022/02/25 01:13:19;;;;;;;12.30;2.00;;;23.40;63.10;;;;;;4974894;28;95868;-47
2022/02/25 01:15:49;;;;;;;5.47;2.03;;;23.50;62.60;;;;;;4961994;28;95840;-47
2022/02/25 01:18:25;;;;;;;7.47;2.38;;;23.70;62.30;;;;;;4975672;28;97005;-47
2022/02/25 01:20:55;;;;;;;7.03;2.05;;;23.80;61.20;;;;;;4981175;28;96148;-46
2022/02/25 01:23:27;;;;;;;5.32;1.83;;;23.90;61.20;;;;;;4977240;28;95830;-46
2022/02/25 01:25:57;;;;;;;21.55;2.50;;;24.00;61.80;;;;;;4972532;28;97528;-44
2022/02/25 01:28:27;;;;;;;6.40;1.42;;;24.20;61.50;;;;;;4977648;28;96237;-44
2022/02/25 01:30:57;;;;;;;5.32;2.05;;;24.40;61.20;;;;;;4961991;28;95911;-44
2022/02/25 01:33:27;;;;;;;7.37;1.83;;;24.50;61.10;;;;;;4964159;28;95795;-43
2022/02/25 01:35:59;;;;;;;8.17;2.33;;;24.60;60.90;;;;;;4971060;28;95948;-44
2022/02/25 01:38:29;;;;;;;8.20;2.40;;;24.70;60.40;;;;;;4972064;28;97032;-44
2022/02/25 01:41:01;;;;;;;7.05;1.92;;;24.80;60.00;;;;;;4972288;28;95779;-44
2022/02/25 01:43:32;;;;;;;10.30;2.15;;;24.90;59.50;;;;;;4974104;28;95360;-44
2022/02/25 01:46:03;;;;;;;;;;;25.00;59.60;;;;;;4970417;28;95779;-46
2022/02/25 01:48:34;;;;;;;7.30;2.10;;;25.10;59.90;;;;;;4976083;28;96105;-46
2022/02/25 01:51:05;;;;;;;6.35;2.28;;;25.20;59.80;;;;;;4975781;28;95925;-47
2022/02/25 01:53:36;;;;;;;4.20;1.38;;;25.30;59.40;;;;;;4976192;28;95917;-47
2022/02/25 01:56:07;;;;;;;6.90;1.80;;;25.20;59.10;;;;;;4979693;28;95822;-47
2022/02/25 01:58:38;;;;;;;4.97;1.83;;;25.30;59.40;;;;;;4976989;28;95947;-47
2022/02/25 02:01:10;;;;;;;7.43;2.33;;;25.30;59.20;;;;;;4974194;28;96126;-46
2022/02/25 02:03:41;;;;;;;5.65;1.90;;;25.20;58.00;;;;;;4977024;28;95778;-46
2022/02/25 02:06:13;;;;;;;8.50;2.30;;;24.90;58.20;;;;;;4972647;28;96194;-47
2022/02/25 02:08:43;;;;;;;12.02;2.92;;;24.60;56.50;;;;;;4977356;28;98045;-46
2022/02/25 02:11:43;;;;;;;4.88;1.55;;;24.20;58.50;;;;;;4976004;28;97287;-47
2022/02/25 02:14:16;;;;;;;8.40;2.60;;;24.20;59.50;;;;;;4979045;28;95753;-46
2022/02/25 02:16:50;;;;;;;4.65;2.35;;;24.10;59.70;;;;;;4973107;28;95724;-46
2022/02/25 02:19:21;;;;;;;6.20;2.10;;;24.10;59.80;;;;;;4974676;28;95873;-46
2022/02/25 02:21:53;;;;;;;;;;;24.10;60.20;;;;;;4973845;28;95936;-46
2022/02/25 02:24:25;;;;;;;16.30;2.80;;;24.00;60.80;;;;;;4977827;28;95960;-46
2022/02/25 02:26:58;;;;;;;11.77;2.47;;;24.00;61.00;;;;;;4975517;28;95655;-46
2022/02/25 02:29:28;;;;;;;11.30;2.60;;;24.00;60.60;;;;;;4973352;28;96450;-46
2022/02/25 02:31:58;;;;;;;6.13;2.15;;;24.00;61.20;;;;;;4968181;28;95915;-47
2022/02/25 02:34:28;;;;;;;17.33;2.80;;;24.00;60.80;;;;;;4970623;28;96160;-46
2022/02/25 02:37:01;;;;;;;10.27;2.67;;;23.90;61.00;;;;;;4970658;28;95671;-47
2022/02/25 02:39:32;;;;;;;9.93;2.50;;;23.90;61.20;;;;;;4966850;28;96307;-46
2022/02/25 02:42:05;;;;;;;5.13;1.90;;;24.00;60.10;;;;;;4968232;28;97787;-46
2022/02/25 02:44:36;;;;;;;6.55;2.20;;;24.10;60.60;;;;;;4971083;28;96123;-47
2022/02/25 02:47:08;;;;;;;7.38;2.10;;;24.10;60.70;;;;;;4965494;28;95969;-46
2022/02/25 02:49:37;;;;;;;9.60;2.15;;;24.10;61.10;;;;;;4976716;28;96195;-46
2022/02/25 02:52:07;;;;;;;10.57;2.47;;;24.10;61.60;;;;;;4968207;28;98097;-46
2022/02/25 02:54:38;;;;;;;8.27;2.00;;;24.10;60.80;;;;;;4966645;28;97526;-46
2022/02/25 02:57:09;;;;;;;10.30;2.58;;;24.10;60.90;;;;;;4975284;28;95841;-45
2022/02/25 02:59:40;;;;;;;7.37;1.90;;;24.10;60.40;;;;;;4980750;28;96810;-45
2022/02/25 03:02:11;;;;;;;5.57;2.03;;;24.20;60.60;;;;;;4966559;28;96221;-45
2022/02/25 03:04:43;;;;;;;8.02;2.65;;;24.20;60.70;;;;;;4970712;28;95979;-45
2022/02/25 03:07:15;;;;;;;11.57;2.17;;;24.20;60.50;;;;;;4975317;28;96253;-45
2022/02/25 03:09:46;;;;;;;7.40;2.78;;;24.10;60.60;;;;;;4976614;28;96186;-45
2022/02/25 03:12:17;;;;;;;7.22;2.35;;;24.20;60.50;;;;;;4967273;28;95933;-45
2022/02/25 03:14:49;;;;;;;6.05;2.78;;;24.20;60.80;;;;;;4969681;28;96116;-46
2022/02/25 03:17:25;;;;;;;8.13;2.55;;;24.20;61.60;;;;;;4971792;28;96055;-46
2022/02/25 03:19:57;;;;;;;7.13;2.05;;;24.20;60.50;;;;;;4971907;28;97163;-46
2022/02/25 03:22:28;;;;;;;9.68;2.58;;;24.20;60.70;;;;;;4975773;28;95972;-45
2022/02/25 03:25:00;;;;;;;7.55;2.45;;;24.10;60.00;;;;;;4979890;28;95808;-45
2022/02/25 03:27:32;;;;;;;8.45;2.05;;;24.10;59.80;;;;;;4967676;28;96016;-45
2022/02/25 03:30:04;;;;;;;4.72;1.88;;;23.90;59.40;;;;;;4965607;28;97529;-46
2022/02/25 03:32:37;;;;;;;5.07;2.13;;;23.90;59.20;;;;;;4952827;28;96585;-45
2022/02/25 03:35:13;;;;;;;6.28;2.47;;;23.90;59.30;;;;;;4983424;28;95697;-45
2022/02/25 03:37:45;;;;;;;9.98;2.20;;;24.10;58.90;;;;;;4959803;28;96038;-45
2022/02/25 03:40:20;;;;;;;7.68;2.30;;;23.90;58.10;;;;;;4966676;28;95928;-45
2022/02/25 03:42:51;;;;;;;8.48;2.63;;;23.90;58.10;;;;;;4977112;28;96459;-46
2022/02/25 03:45:23;;;;;;;5.72;2.08;;;23.80;58.60;;;;;;4952710;28;96165;-46
2022/02/25 03:47:54;;;;;;;6.82;2.33;;;23.90;58.80;;;;;;4972027;28;96294;-46
2022/02/25 03:50:24;;;;;;;7.28;1.83;;;24.00;57.40;;;;;;4965899;28;96408;-45
2022/02/25 03:52:54;;;;;;;11.95;2.53;;;24.00;57.70;;;;;;4974717;28;96510;-45
2022/02/25 03:55:24;;;;;;;9.23;2.35;;;24.00;56.90;;;;;;4975635;28;95309;-46
2022/02/25 03:57:55;;;;;;;8.32;2.33;;;23.90;57.00;;;;;;4975746;28;95653;-46
2022/02/25 04:00:25;;;;;;;;;;;23.80;56.40;;;;;;4973567;28;97728;-46
2022/02/25 04:02:57;;;;;;;6.72;1.70;;;24.00;57.10;;;;;;4967813;28;95777;-46
2022/02/25 04:05:30;;;;;;;4.38;2.00;;;24.40;57.40;;;;;;4975002;28;95779;-46
2022/02/25 04:08:01;;;;;;;7.43;1.98;;;24.70;57.30;;;;;;4981139;28;95390;-45
2022/02/25 04:10:33;;;;;;;5.72;1.80;;;24.90;57.20;;;;;;4968870;28;96679;-45
2022/02/25 04:13:04;;;;;;;6.57;2.10;;;25.10;57.10;;;;;;4972286;28;95854;-45
2022/02/25 04:15:37;;;;;;;7.70;2.20;;;25.30;55.70;;;;;;4970541;28;98670;-46
2022/02/25 04:18:09;;;;;;;4.25;2.10;;;25.50;57.10;;;;;;4969843;28;95436;-46
2022/02/25 04:20:39;;;;;;;8.07;2.28;;;25.60;56.90;;;;;;4967412;28;96662;-45
2022/02/25 04:23:10;;;;;;;8.80;2.33;;;25.60;54.80;;;;;;4974481;28;98562;-46
2022/02/25 04:25:44;;;;;;;7.22;2.67;;;25.10;52.90;;;;;;4967572;28;96111;-46
2022/02/25 04:28:15;;;;;;;6.93;2.70;;;24.80;52.80;;;;;;4972726;28;97561;-45
2022/02/25 04:30:45;;;;;;;4.17;2.07;;;24.60;52.70;;;;;;4959085;28;96881;-45
2022/02/25 04:33:15;;;;;;;6.95;1.92;;;24.50;53.20;;;;;;4963107;28;97194;-46
2022/02/25 04:35:45;;;;;;;6.78;2.15;;;24.40;53.20;;;;;;4967359;28;96037;-45
2022/02/25 04:38:22;;;;;;;10.90;2.47;;;24.30;53.20;;;;;;4972246;28;95799;-45
2022/02/25 04:40:54;;;;;;;7.10;2.58;;;24.30;54.10;;;;;;4973874;28;97179;-45
2022/02/25 04:43:25;;;;;;;5.30;2.03;;;24.30;54.50;;;;;;4979234;28;96328;-45
2022/02/25 04:45:56;;;;;;;6.03;2.15;;;24.30;54.40;;;;;;4974398;28;95741;-47
2022/02/25 04:48:27;;;;;;;11.10;2.88;;;24.20;54.60;;;;;;4980828;28;96548;-46
2022/02/25 04:50:57;;;;;;;6.85;2.38;;;24.20;54.40;;;;;;4978017;28;96482;-46
2022/02/25 04:53:29;;;;;;;8.18;3.03;;;24.20;54.10;;;;;;4973043;28;96216;-46
2022/02/25 04:56:00;;;;;;;4.68;2.38;;;24.20;53.70;;;;;;4978611;28;98051;-45
2022/02/25 04:58:33;;;;;;;6.85;2.25;;;24.10;54.40;;;;;;4978016;28;95625;-45
2022/02/25 05:01:04;;;;;;;5.82;2.50;;;24.00;52.90;;;;;;4966290;28;96120;-46
2022/02/25 05:03:37;;;;;;;10.82;1.95;;;24.00;55.80;;;;;;4975278;28;96795;-46
2022/02/25 05:06:10;;;;;;;10.95;2.17;;;24.00;54.30;;;;;;4968789;28;95768;-45
2022/02/25 05:08:44;;;;;;;7.47;2.17;;;24.10;55.20;;;;;;4969976;28;95721;-46
2022/02/25 05:11:17;;;;;;;8.02;2.75;;;24.30;54.30;;;;;;4974865;28;96803;-46
2022/02/25 05:13:48;;;;;;;8.15;2.35;;;24.20;54.70;;;;;;4981436;28;96104;-45
2022/02/25 05:21:59;;;;;;;6.43;2.53;;;24.00;54.00;;;;;;4979454;28;96094;-47
2022/02/25 05:24:30;;;;;;;7.18;1.92;;;24.10;54.00;;;;;;4973675;28;95517;-46
2022/02/25 05:27:01;;;;;;;4.85;2.38;;;24.00;54.50;;;;;;4973075;28;96482;-46
2022/02/25 05:29:34;;;;;;;5.88;1.55;;;24.00;54.30;;;;;;4981589;28;96376;-46
2022/02/25 05:32:06;;;;;;;6.72;2.35;;;24.00;54.60;;;;;;4980577;28;96586;-47
2022/02/25 05:34:37;;;;;;;9.35;2.53;;;24.20;57.00;;;;;;4985401;28;96020;-48
2022/02/25 05:37:06;;;;;;;6.22;2.03;;;24.30;53.80;;;;;;4989181;28;97149;-46
2022/02/25 05:39:37;;;;;;;4.75;2.00;;;24.20;54.30;;;;;;4986764;28;95920;-46
2022/02/25 05:42:11;;;;;;;10.35;2.75;;;24.20;54.50;;;;;;4979664;28;97020;-46
2022/02/25 05:44:41;;;;;;;7.03;2.33;;;24.20;54.10;;;;;;4978243;28;95707;-47
2022/02/25 05:47:11;;;;;;;10.82;2.38;;;24.10;54.20;;;;;;4971275;28;95531;-46
2022/02/25 05:49:41;;;;;;;11.63;3.10;;;24.00;54.60;;;;;;4981425;28;95713;-46
2022/02/25 05:52:12;;;;;;;6.65;2.00;;;24.00;54.30;;;;;;4985154;28;96435;-46
2022/02/25 05:54:44;;;;;;;;;;;24.00;54.40;;;;;;4980017;28;96347;-46
2022/02/25 05:57:18;;;;;;;10.05;2.78;;;24.00;55.10;;;;;;4983324;28;95794;-47
2022/02/25 05:59:49;;;;;;;6.30;2.17;;;23.90;54.10;;;;;;4973195;28;97042;-46
2022/02/25 06:02:22;;;;;;;7.38;2.40;;;23.80;57.40;;;;;;4978253;28;96051;-46
2022/02/25 06:04:53;;;;;;;6.25;2.13;;;24.00;55.80;;;;;;4982306;28;95756;-46
2022/02/25 06:07:25;;;;;;;7.82;2.25;;;23.90;56.80;;;;;;4986607;28;95742;-47
2022/02/25 06:09:56;;;;;;;6.78;2.00;;;24.10;56.50;;;;;;4986589;28;95936;-46
2022/02/25 06:12:28;;;;;;;6.03;2.97;;;24.30;56.60;;;;;;4977000;28;95278;-46
2022/02/25 06:15:01;;;;;;;7.20;1.88;;;24.40;54.90;;;;;;4979601;28;96071;-46
2022/02/25 06:17:32;;;;;;;7.75;2.13;;;24.30;54.60;;;;;;4967866;28;95988;-46
2022/02/25 06:20:05;;;;;;;8.75;2.50;;;24.50;56.00;;;;;;4979316;28;95919;-46
2022/02/25 06:22:37;;;;;;;5.60;2.28;;;24.70;56.40;;;;;;4979753;28;96123;-46
2022/02/25 06:25:10;;;;;;;6.65;2.63;;;24.90;56.70;;;;;;4973842;28;96172;-46
2022/02/25 06:27:41;;;;;;;7.13;1.98;;;25.10;56.50;;;;;;4978777;28;96120;-45
2022/02/25 06:30:13;;;;;;;8.48;2.35;;;25.20;56.80;;;;;;4971696;28;95816;-46
2022/02/25 06:32:43;;;;;;;4.13;2.03;;;25.30;57.10;;;;;;4961626;28;96088;-46
2022/02/25 06:35:14;;;;;;;4.38;1.65;;;25.50;57.30;;;;;;4973185;28;95807;-46
2022/02/25 06:37:44;;;;;;;6.20;1.83;;;25.50;57.30;;;;;;4974922;28;95760;-46
2022/02/25 06:40:14;;;;;;;7.55;2.50;;;25.30;56.40;;;;;;4973325;28;95789;-46
2022/02/25 06:42:45;;;;;;;7.72;2.17;;;25.10;56.90;;;;;;4974087;28;96571;-46
2022/02/25 06:45:17;;;;;;;4.85;2.03;;;24.90;57.50;;;;;;4970150;28;97455;-46
2022/02/25 06:47:48;;;;;;;6.55;2.05;;;24.90;58.30;;;;;;4976308;28;96288;-46
2022/02/25 06:50:19;;;;;;;5.95;2.08;;;24.90;58.60;;;;;;4971115;28;95986;-46
2022/02/25 06:52:49;;;;;;;10.23;3.08;;;24.80;58.30;;;;;;4973019;28;96447;-46
2022/02/25 06:55:21;;;;;;;;;;;24.80;58.60;;;;;;4972321;28;96045;-46
2022/02/25 06:58:07;;;;;;;9.32;2.50;;;24.80;58.80;;;;;;4980574;28;95903;-46
2022/02/25 07:00:39;;;;;;;8.32;2.80;;;24.80;59.20;;;;;;4970318;28;96407;-46
2022/02/25 07:03:11;;;;;;;10.35;1.98;;;24.70;59.40;;;;;;4973381;28;96746;-46
2022/02/25 07:05:42;;;;;;;5.32;2.17;;;24.70;59.60;;;;;;4970468;28;96106;-46
2022/02/25 07:08:16;;;;;;;5.32;2.35;;;24.70;60.00;;;;;;4969130;28;95829;-46
2022/02/25 07:10:46;;;;;;;6.82;1.98;;;24.70;60.30;;;;;;4977200;28;96004;-46
2022/02/25 07:13:19;;;;;;;5.88;3.03;;;24.70;60.50;;;;;;4971589;28;96005;-46
2022/02/25 07:15:51;;;;;;;8.60;2.50;;;24.60;60.70;;;;;;4968364;28;98753;-45
2022/02/25 07:18:22;;;;;;;18.75;5.93;;;24.70;60.90;;;;;;4951981;28;95377;-46
2022/02/25 07:20:56;;;;;;;18.05;8.45;;;24.70;60.90;;;;;;4969534;28;97410;-46
2022/02/25 07:23:27;;;;;;;22.63;9.73;;;24.60;60.30;;;;;;4970492;28;96775;-46
2022/02/25 07:25:58;;;;;;;;;;;24.50;60.10;;;;;;4972693;28;96316;-46
2022/02/25 07:28:27;;;;;;;33.47;27.10;;;24.40;60.30;;;;;;4978018;28;95792;-48
2022/02/25 07:30:57;;;;;;;25.15;22.20;;;24.30;60.90;;;;;;4971756;28;96104;-46
2022/02/25 07:33:28;;;;;;;36.43;23.93;;;24.20;60.70;;;;;;4974945;28;97239;-46
2022/02/25 07:35:59;;;;;;;24.00;21.40;;;24.10;60.20;;;;;;4975243;28;96215;-45
2022/02/25 07:38:30;;;;;;;24.55;18.25;;;24.00;59.60;;;;;;4957675;28;95298;-45
2022/02/25 07:41:01;;;;;;;17.58;12.10;;;23.90;60.00;;;;;;4977806;28;96242;-46
2022/02/25 07:43:33;;;;;;;16.35;10.38;;;23.90;61.20;;;;;;4974833;28;96526;-46
2022/02/25 07:46:04;;;;;;;11.98;8.25;;;23.90;60.30;;;;;;4960023;28;95576;-46
2022/02/25 07:48:39;;;;;;;16.52;9.07;;;23.80;62.00;;;;;;4971740;28;95829;-46
2022/02/25 07:51:10;;;;;;;14.17;9.87;;;23.70;61.70;;;;;;4974050;28;96095;-45
2022/02/25 07:53:43;;;;;;;11.27;6.35;;;23.70;61.90;;;;;;4970295;28;96771;-45
2022/02/25 07:56:14;;;;;;;16.90;5.53;;;23.70;62.00;;;;;;4969657;28;95933;-45
2022/02/25 07:58:45;;;;;;;14.23;6.75;;;23.70;61.40;;;;;;4971069;28;96238;-45
2022/02/25 08:01:16;;;;;;;12.13;5.32;;;23.60;61.50;;;;;;4974081;28;95676;-45
2022/02/25 08:03:47;;;;;;;12.48;3.70;;;23.60;63.00;;;;;;4968375;28;98130;-45
2022/02/25 08:06:19;;;;;;;7.00;3.42;;;23.50;63.50;;;;;;4970016;28;95442;-46
2022/02/25 08:08:50;;;;;;;8.98;2.35;;;23.50;63.80;;;;;;4977408;28;95695;-45
2022/02/25 08:11:21;;;;;;;8.77;2.85;;;23.50;64.20;;;;;;4971761;28;95805;-45
2022/02/25 08:13:51;;;;;;;9.20;2.90;;;23.50;64.00;;;;;;4970689;28;96330;-45
2022/02/25 08:16:22;;;;;;;;;;;23.50;64.20;;;;;;4954279;28;96534;-45
2022/02/25 08:18:53;;;;;;;12.70;2.10;;;23.50;64.10;;;;;;4975561;28;95782;-45
2022/02/25 08:21:23;;;;;;;11.33;2.53;;;23.60;64.30;;;;;;4977747;28;95391;-45
2022/02/25 08:23:54;;;;;;;7.07;2.28;;;23.60;64.50;;;;;;4971910;28;96395;-45
2022/02/25 08:26:25;;;;;;;8.00;2.45;;;23.50;64.50;;;;;;4971985;28;95655;-45
2022/02/25 08:28:56;;;;;;;8.48;2.65;;;23.50;64.70;;;;;;4951370;28;95967;-45
2022/02/25 08:31:27;;;;;;;7.32;1.90;;;23.50;64.80;;;;;;4967325;28;95848;-45
2022/02/25 08:33:57;;;;;;;;;;;23.50;64.90;;;;;;4978647;28;96465;-45
2022/02/25 08:36:28;;;;;;;14.80;2.58;;;23.40;65.30;;;;;;4980494;28;96257;-45
2022/02/25 08:39:01;;;;;;;9.15;2.97;;;23.40;65.20;;;;;;4981126;28;95753;-45
2022/02/25 08:41:34;;;;;;;8.35;2.42;;;23.30;65.40;;;;;;4976034;28;95821;-45
2022/02/25 08:44:05;;;;;;;8.20;1.90;;;23.30;65.50;;;;;;4976778;28;96625;-49
2022/02/25 08:46:36;;;;;;;8.40;2.47;;;23.20;65.80;;;;;;4965993;28;95900;-47
2022/02/25 08:49:06;;;;;;;;;;;23.10;66.00;;;;;;4970126;28;96063;-47
2022/02/25 08:51:36;;;;;;;13.00;2.92;;;23.00;66.00;;;;;;4979463;28;95821;-47
2022/02/25 08:54:06;;;;;;;8.23;2.22;;;22.90;66.50;;;;;;4946354;28;96003;-48
2022/02/25 08:56:39;;;;;;;10.52;2.45;;;22.90;66.60;;;;;;4968540;28;95836;-47
2022/02/25 08:59:09;;;;;;;6.65;1.83;;;22.90;66.70;;;;;;4976042;28;97442;-47
2022/02/25 09:01:43;;;;;;;10.55;2.58;;;22.60;67.10;;;;;;4957484;28;96248;-47
2022/02/25 09:04:14;;;;;;;;;;;22.60;68.00;;;;;;4972182;28;95957;-47
2022/02/25 09:06:45;;;;;;;10.35;1.85;;;22.50;67.90;;;;;;4955372;28;96092;-47
2022/02/25 09:09:16;;;;;;;12.50;1.85;;;22.50;68.10;;;;;;4979640;28;97580;-47
2022/02/25 09:11:47;;;;;;;8.43;2.17;;;22.60;68.00;;;;;;4975605;28;95585;-47
2022/02/25 09:14:18;;;;;;;8.50;1.83;;;22.50;67.90;;;;;;4971943;28;96905;-48
2022/02/25 09:16:49;;;;;;;4.28;1.92;;;22.40;68.10;;;;;;4967095;28;96454;-47
2022/02/25 09:19:20;;;;;;;;;;;22.40;68.30;;;;;;4969871;28;95931;-47
2022/02/25 09:21:50;;;;;;;5.90;2.10;;;22.40;68.40;;;;;;4971662;28;95611;-47
2022/02/25 09:24:21;;;;;;;6.63;2.00;;;22.40;68.10;;;;;;4974464;28;97127;-48
2022/02/25 09:26:52;;;;;;;4.10;1.60;;;22.40;68.30;;;;;;4966876;28;95872;-47
2022/02/25 09:29:23;;;;;;;18.00;2.00;;;22.40;68.20;;;;;;4977826;28;96274;-48
2022/02/25 09:31:54;;;;;;;14.85;2.45;;;22.20;68.50;;;;;;4967682;28;96065;-47
2022/02/25 09:34:24;;;;;;;33.67;4.55;;;22.20;68.60;;;;;;4978255;28;96492;-47
2022/02/25 09:36:54;;;;;;;15.00;2.15;;;22.20;68.70;;;;;;4975890;28;96500;-48
2022/02/25 09:39:24;;;;;;;16.27;2.88;;;22.10;68.60;;;;;;4977451;28;96068;-47
2022/02/25 09:41:59;;;;;;;;;;;22.10;69.00;;;;;;4980481;28;96012;-47
2022/02/25 09:44:29;;;;;;;17.20;2.70;;;22.00;68.90;;;;;;4982509;28;96425;-47
2022/02/25 09:47:00;;;;;;;12.67;2.13;;;22.00;69.20;;;;;;4974650;28;96277;-47
2022/02/25 09:49:29;;;;;;;8.90;1.98;;;22.00;69.40;;;;;;4975638;28;98406;-45
2022/02/25 09:52:00;;;;;;;10.68;2.65;;;21.90;69.60;;;;;;4974722;28;95852;-45
2022/02/25 09:54:29;;;;;;;5.43;1.60;;;21.90;69.80;;;;;;4966876;28;96274;-45
2022/02/25 09:57:04;;;;;;;12.90;2.17;;;21.90;69.80;;;;;;4971175;28;96077;-45
2022/02/25 09:59:35;;;;;;;4.20;1.20;;;21.80;70.00;;;;;;4977590;28;95844;-45
2022/02/25 10:02:08;;;;;;;5.53;1.65;;;21.80;70.20;;;;;;4979091;28;95690;-45
2022/02/25 10:04:39;;;;;;;7.15;2.13;;;21.70;70.40;;;;;;4985375;28;96315;-45
2022/02/25 10:07:37;;;;;;;5.63;1.70;;;21.70;70.50;;;;;;4974657;28;96076;-45
2022/02/25 10:10:11;;;;;;;3.47;1.17;;;21.70;70.50;;;;;;4975263;28;96049;-45
2022/02/25 10:12:59;;;;;;;4.78;1.73;;;21.70;70.60;;;;;;4968685;28;96172;-45
2022/02/25 10:15:33;;;;;;;3.05;1.17;;;21.70;70.60;;;;;;4975902;28;96907;-45
2022/02/25 10:18:07;;;;;;;4.30;1.58;;;21.60;70.80;;;;;;4973868;28;95469;-45
2022/02/25 10:20:39;;;;;;;7.53;2.55;;;21.70;70.90;;;;;;4971909;28;96120;-45
2022/02/25 10:23:29;;;;;;;6.00;1.58;;;21.70;70.90;;;;;;4976681;28;95336;-45
2022/02/25 10:26:14;;;;;;;6.40;1.58;;;21.70;71.70;;;;;;4979243;28;96896;-45
2022/02/25 10:28:47;;;;;;;12.05;2.67;;;21.70;71.20;;;;;;4976706;28;95851;-45
2022/02/25 10:31:28;;;;;;;9.50;1.88;;;21.50;71.50;;;;;;4983056;28;95879;-46
2022/02/25 10:34:05;;;;;;;6.00;1.73;;;21.40;72.40;;;;;;4987228;28;95799;-45
2022/02/25 10:36:46;;;;;;;3.20;1.42;;;21.40;72.60;;;;;;4975392;28;97933;-47
2022/02/25 10:39:29;;;;;;;8.65;1.77;;;21.30;73.10;;;;;;4981158;28;95955;-44
2022/02/25 10:42:15;;;;;;;6.90;1.40;;;21.40;73.20;;;;;;4977667;28;97740;-47
2022/02/25 10:44:53;;;;;;;5.93;1.73;;;21.30;73.50;;;;;;4971705;28;97854;-47
2022/02/25 10:47:26;;;;;;;3.35;1.23;;;21.20;73.70;;;;;;4969007;28;98013;-47
2022/02/25 10:50:11;;;;;;;3.60;1.40;;;21.30;73.60;;;;;;4975853;28;95770;-47
2022/02/25 10:52:45;;;;;;;4.88;1.75;;;21.40;73.20;;;;;;4983361;28;95604;-47
2022/02/25 10:55:20;;;;;;;3.10;1.80;;;21.50;73.10;;;;;;4989664;28;95428;-44
2022/02/25 10:57:54;;;;;;;3.67;1.40;;;21.50;73.10;;;;;;4975359;28;95972;-44
2022/02/25 11:00:26;;;;;;;5.57;1.40;;;21.40;73.30;;;;;;4972882;28;97965;-44
2022/02/25 11:02:59;;;;;;;3.63;1.58;;;21.40;73.40;;;;;;4976055;28;95916;-46
2022/02/25 11:05:34;;;;;;;5.05;1.80;;;21.40;73.70;;;;;;4974159;28;95724;-47
2022/02/25 11:08:05;;;;;;;6.28;1.75;;;21.30;73.70;;;;;;4977424;28;96340;-47
2022/02/25 11:10:39;;;;;;;7.15;1.70;;;21.40;73.80;;;;;;4980558;28;95624;-47
2022/02/25 11:13:16;;;;;;;3.25;1.63;;;21.30;74.00;;;;;;4981013;28;97815;-47
2022/02/25 11:15:49;;;;;;;4.97;1.40;;;21.30;74.20;;;;;;4971080;28;95352;-47
2022/02/25 11:18:21;;;;;;;6.70;1.60;;;21.40;74.20;;;;;;4974575;28;96427;-47
2022/02/25 11:20:53;;;;;;;5.63;1.65;;;21.30;74.30;;;;;;4977106;28;97304;-46
2022/02/25 11:23:25;;;;;;;7.85;1.77;;;21.30;74.30;;;;;;4973081;28;95681;-46
2022/02/25 11:25:56;;;;;;;3.50;1.30;;;21.30;74.50;;;;;;4984759;28;95630;-46
2022/02/25 11:28:27;;;;;;;4.78;1.20;;;21.30;74.60;;;;;;4974101;28;96700;-45
2022/02/25 11:31:06;;;;;;;6.45;1.40;;;21.30;74.70;;;;;;4971819;28;95511;-45
2022/02/25 11:33:37;;;;;;;5.78;1.30;;;21.30;74.60;;;;;;4969421;28;95617;-45
2022/02/25 11:36:11;;;;;;;5.35;1.48;;;21.20;75.20;;;;;;4975095;28;96008;-45
2022/02/25 11:38:46;;;;;;;2.97;1.42;;;21.10;75.70;;;;;;4976960;28;96062;-45
2022/02/25 11:41:22;;;;;;;2.25;0.93;;;21.10;76.10;;;;;;4974029;28;95583;-45
2022/02/25 11:43:54;;;;;;;4.90;1.67;;;21.10;76.10;;;;;;4976055;28;95964;-45
2022/02/25 11:46:33;;;;;;;5.10;1.25;;;21.20;75.90;;;;;;4969093;28;95701;-45
2022/02/25 11:49:09;;;;;;;1.42;0.70;;;21.20;76.00;;;;;;4974203;28;96547;-45
2022/02/25 11:51:42;;;;;;;1.48;0.65;;;21.10;76.50;;;;;;4970274;28;96011;-44
2022/02/25 11:54:26;;;;;;;5.18;1.30;;;21.10;76.90;;;;;;4973868;28;95766;-45
2022/02/25 11:57:03;;;;;;;1.60;0.77;;;21.10;76.90;;;;;;4980294;28;95663;-45
2022/02/25 11:59:36;;;;;;;;;;;21.20;76.80;;;;;;4979463;28;97011;-45
2022/02/25 12:02:12;;;;;;;2.80;0.70;;;21.20;76.90;;;;;;4977479;28;95705;-45
2022/02/25 12:04:45;;;;;;;3.03;0.80;;;21.10;77.10;;;;;;4981105;28;95318;-45
2022/02/25 12:07:32;;;;;;;2.67;0.77;;;21.20;76.90;;;;;;4969329;28;95824;-45
2022/02/25 12:10:13;;;;;;;2.03;0.77;;;21.20;76.90;;;;;;4978153;28;96145;-45
2022/02/25 12:12:46;;;;;;;0.70;0.70;;;21.20;76.80;;;;;;4983583;28;96153;-45
2022/02/25 12:15:26;;;;;;;1.75;0.80;;;21.10;77.10;;;;;;4976726;28;95376;-45
2022/02/25 12:17:58;;;;;;;1.10;0.60;;;21.20;77.10;;;;;;4972926;28;95897;-45
2022/02/25 12:20:52;;;;;;;1.08;0.70;;;21.10;77.20;;;;;;4970199;28;96469;-45
2022/02/25 12:23:36;;;;;;;1.63;0.77;;;21.20;77.30;;;;;;4969011;28;95978;-45
2022/02/25 12:26:09;;;;;;;1.70;0.50;;;21.20;77.20;;;;;;4972925;28;95889;-45
2022/02/25 12:28:50;;;;;;;2.92;0.47;;;21.20;77.10;;;;;;4976425;28;95607;-45
2022/02/25 12:31:42;;;;;;;1.27;0.40;;;21.10;77.30;;;;;;4970411;28;99699;-45
2022/02/25 12:34:25;;;;;;;0.68;0.40;;;21.10;77.50;;;;;;4976808;28;95935;-45
2022/02/25 12:36:56;;;;;;;1.95;0.50;;;21.20;77.60;;;;;;4978728;28;96248;-45
2022/02/25 12:39:34;;;;;;;1.95;0.65;;;21.10;77.50;;;;;;4969791;28;96022;-45
2022/02/25 12:42:10;;;;;;;2.97;0.50;;;21.10;77.70;;;;;;4971140;28;96170;-45
2022/02/25 12:44:45;;;;;;;1.95;0.52;;;21.10;77.70;;;;;;4973526;28;95834;-45
2022/02/25 12:47:17;;;;;;;0.57;0.40;;;21.10;77.60;;;;;;4973095;28;95648;-45
2022/02/25 12:49:47;;;;;;;0.82;0.65;;;21.20;77.60;;;;;;4972201;28;95745;-45
2022/02/25 12:52:17;;;;;;;2.10;1.00;;;21.20;77.40;;;;;;4974145;28;96141;-45
2022/02/25 12:54:57;;;;;;;0.93;0.40;;;21.20;77.60;;;;;;4978551;28;95824;-45
2022/02/25 12:57:31;;;;;;;1.35;0.47;;;21.20;77.50;;;;;;4973132;28;97535;-45
2022/02/25 13:00:01;;;;;;;2.08;0.50;;;21.20;77.70;;;;;;4976809;28;97577;-45
2022/02/25 13:02:32;;;;;;;5.72;0.70;;;21.10;77.60;;;;;;4975910;28;96013;-45
2022/02/25 13:05:03;;;;;;;;;;;21.20;77.60;;;;;;4972481;28;95675;-45
2022/02/25 13:07:34;;;;;;;0.40;0.40;;;21.10;76.60;;;;;;4982198;28;95790;-45
2022/02/25 13:10:06;;;;;;;1.95;0.60;;;21.10;77.90;;;;;;4973003;28;95854;-45
2022/02/25 13:12:37;;;;;;;0.85;0.30;;;21.10;77.90;;;;;;4973118;28;96080;-45
2022/02/25 13:15:09;;;;;;;1.75;0.35;;;21.10;77.90;;;;;;4977756;28;97926;-45
2022/02/25 13:17:40;;;;;;;0.52;0.40;;;21.10;78.00;;;;;;4957020;28;95973;-45
2022/02/25 13:20:12;;;;;;;0.75;0.45;;;21.10;78.00;;;;;;4952427;28;95869;-45
2022/02/25 13:22:44;;;;;;;;;;;21.00;78.20;;;;;;4955227;28;96170;-45